Time;durP1;ratioP1;P1;durP2;ratioP2;P2;SDS_P1;SDS_P2;PMS_P1;PMS_P2;Temp;Humidity;BMP_temperature;BMP_pressure;BME280_temperature;BME280_humidity;BME280_pressure;Samples;Min_cycle;Max_cycle;Signal;HPM_P1;HPM_P2
2024/02/08 00:00:03;;;;;;;0.30;0.30;;;;;;;;;;4977525;28;20997;-78
2024/02/08 00:02:30;;;;;;;0.30;0.30;;;8.20;99.90;;;;;;4977552;28;20441;-78
2024/02/08 00:04:57;;;;;;;0.30;0.30;;;8.20;99.90;;;;;;4977369;28;20484;-78
2024/02/08 00:07:23;;;;;;;0.40;0.30;;;8.20;99.90;;;;;;4978145;28;20429;-78
2024/02/08 00:09:55;;;;;;;0.30;0.30;;;8.20;99.90;;;;;;4981846;28;20461;-78
2024/02/08 00:12:21;;;;;;;0.30;0.30;;;8.20;99.90;;;;;;4983192;28;20442;-78
2024/02/08 00:14:49;;;;;;;0.40;0.40;;;8.20;99.90;;;;;;4977464;28;20450;-77
2024/02/08 00:17:20;;;;;;;0.30;0.20;;;8.20;99.90;;;;;;4977164;28;20454;-78
2024/02/08 00:19:48;;;;;;;0.30;0.23;;;8.20;99.90;;;;;;4977060;28;20477;-78
2024/02/08 00:22:15;;;;;;;0.63;0.30;;;8.20;99.90;;;;;;4977255;28;20477;-78
2024/02/08 00:24:41;;;;;;;0.50;0.40;;;8.20;99.90;;;;;;4977106;28;20485;-78
2024/02/08 00:27:09;;;;;;;0.40;0.33;;;8.20;99.90;;;;;;4976929;28;20445;-78
2024/02/08 00:29:41;;;;;;;0.30;0.30;;;8.20;99.90;;;;;;4977060;28;20872;-78
2024/02/08 00:32:08;;;;;;;0.30;0.30;;;8.30;99.90;;;;;;4981924;28;20426;-78
2024/02/08 00:34:35;;;;;;;0.30;0.20;;;8.30;99.90;;;;;;4982584;28;20453;-78
2024/02/08 00:37:02;;;;;;;0.30;0.30;;;8.30;99.90;;;;;;4977450;28;20819;-77
2024/02/08 00:39:28;;;;;;;2.00;0.40;;;8.30;99.90;;;;;;4976858;28;20855;-77
2024/02/08 00:41:57;;;;;;;0.70;0.40;;;8.30;99.90;;;;;;4977036;28;20452;-78
2024/02/08 00:44:27;;;;;;;0.30;0.30;;;8.30;99.90;;;;;;4976811;28;20507;-78
2024/02/08 00:46:54;;;;;;;0.40;0.30;;;8.30;99.90;;;;;;4976010;28;20473;-78
2024/02/08 00:49:21;;;;;;;0.30;0.30;;;8.30;99.90;;;;;;4976434;28;20474;-78
2024/02/08 00:51:49;;;;;;;0.30;0.30;;;8.30;99.90;;;;;;4976214;28;21005;-78
2024/02/08 00:54:15;;;;;;;0.40;0.40;;;8.40;99.90;;;;;;4976466;28;20536;-78
2024/02/08 00:56:42;;;;;;;0.40;0.30;;;8.40;99.90;;;;;;4976409;28;20445;-78
2024/02/08 00:59:09;;;;;;;0.30;0.30;;;8.30;99.90;;;;;;4976090;28;21013;-78
2024/02/08 01:01:40;;;;;;;0.30;0.30;;;8.40;99.90;;;;;;4976315;28;20821;-78
2024/02/08 01:04:07;;;;;;;0.40;0.40;;;8.40;99.90;;;;;;4976332;28;20568;-79
2024/02/08 01:06:34;;;;;;;0.30;0.20;;;8.40;99.90;;;;;;4975897;28;20957;-78
2024/02/08 01:09:01;;;;;;;0.40;0.30;;;8.40;99.90;;;;;;4976310;28;20881;-78
2024/02/08 01:11:27;;;;;;;0.30;0.30;;;8.40;99.90;;;;;;4976200;28;20437;-78
2024/02/08 01:13:54;;;;;;;0.60;0.40;;;8.40;99.90;;;;;;4976155;28;20446;-78
2024/02/08 01:16:21;;;;;;;0.33;0.30;;;8.40;99.90;;;;;;4975817;28;20934;-78
2024/02/08 01:18:49;;;;;;;0.40;0.40;;;8.40;99.90;;;;;;4976175;28;20481;-78
2024/02/08 01:21:16;;;;;;;0.30;0.30;;;8.40;99.90;;;;;;4975722;28;20485;-79
2024/02/08 01:23:46;;;;;;;0.30;0.30;;;8.40;99.90;;;;;;4975841;28;20939;-78
2024/02/08 01:26:14;;;;;;;0.30;0.30;;;8.40;99.90;;;;;;4975982;28;20433;-78
2024/02/08 01:28:41;;;;;;;0.40;0.30;;;8.40;99.90;;;;;;4975701;28;20496;-78
2024/02/08 01:31:08;;;;;;;0.30;0.30;;;8.40;99.90;;;;;;4976003;28;20445;-78
2024/02/08 01:33:36;;;;;;;0.40;0.30;;;8.40;99.90;;;;;;4976533;28;20810;-78
2024/02/08 01:36:04;;;;;;;0.30;0.30;;;8.40;99.90;;;;;;4975879;28;20507;-78
2024/02/08 01:38:31;;;;;;;0.47;0.47;;;8.50;99.90;;;;;;4975605;28;20445;-78
2024/02/08 01:40:58;;;;;;;0.40;0.40;;;8.50;99.90;;;;;;4975477;28;20433;-78
2024/02/08 01:43:25;;;;;;;0.60;0.30;;;8.50;99.90;;;;;;4975868;28;20523;-78
2024/02/08 01:45:51;;;;;;;0.37;0.30;;;8.50;99.90;;;;;;4975871;28;20487;-78
2024/02/08 01:48:18;;;;;;;0.30;0.20;;;8.50;99.90;;;;;;4975787;28;20464;-78
2024/02/08 01:50:49;;;;;;;0.30;0.30;;;8.50;99.90;;;;;;4975485;28;20469;-78
2024/02/08 01:53:27;;;;;;;0.30;0.27;;;8.50;99.90;;;;;;4975702;28;20429;-78
2024/02/08 01:55:57;;;;;;;0.30;0.30;;;8.50;99.90;;;;;;4975517;28;20421;-78
2024/02/08 01:58:26;;;;;;;0.30;0.30;;;8.50;99.90;;;;;;4974922;28;20450;-78
2024/02/08 02:00:56;;;;;;;0.30;0.30;;;8.50;99.90;;;;;;4974906;28;20453;-78
2024/02/08 02:03:23;;;;;;;1.43;0.30;;;8.50;99.90;;;;;;4975290;28;20458;-78
2024/02/08 02:05:50;;;;;;;0.30;0.30;;;8.50;99.90;;;;;;4975130;28;20481;-78
2024/02/08 02:08:21;;;;;;;0.30;0.30;;;8.50;99.90;;;;;;4975188;28;20456;-78
2024/02/08 02:10:53;;;;;;;0.40;0.30;;;8.50;99.90;;;;;;4975291;28;20472;-78
2024/02/08 02:13:20;;;;;;;0.30;0.20;;;8.50;99.90;;;;;;4975290;28;20433;-78
2024/02/08 02:15:49;;;;;;;0.40;0.30;;;8.50;99.90;;;;;;4975210;28;20441;-78
2024/02/08 02:18:17;;;;;;;0.30;0.30;;;8.50;99.90;;;;;;4975329;28;20516;-78
2024/02/08 02:20:44;;;;;;;0.70;0.60;;;8.40;99.90;;;;;;4974918;28;20477;-78
2024/02/08 02:23:18;;;;;;;1.60;0.40;;;8.40;99.90;;;;;;4975136;28;20802;-78
2024/02/08 02:25:48;;;;;;;0.30;0.30;;;8.40;99.90;;;;;;4975164;28;20556;-78
2024/02/08 02:28:17;;;;;;;0.40;0.30;;;8.40;99.90;;;;;;4975079;28;20818;-78
2024/02/08 02:30:45;;;;;;;0.40;0.30;;;8.50;99.90;;;;;;4974899;28;20465;-78
2024/02/08 02:33:14;;;;;;;0.30;0.27;;;8.50;99.90;;;;;;4975476;28;20441;-78
2024/02/08 02:35:47;;;;;;;0.30;0.30;;;8.50;99.90;;;;;;4975535;28;20442;-78
2024/02/08 02:38:17;;;;;;;0.30;0.30;;;8.40;99.90;;;;;;4975791;28;20492;-78
2024/02/08 02:40:44;;;;;;;0.40;0.30;;;8.40;99.90;;;;;;4974603;28;20520;-78
2024/02/08 02:43:13;;;;;;;0.30;0.20;;;8.40;99.90;;;;;;4974970;28;20445;-78
2024/02/08 02:45:40;;;;;;;0.47;0.30;;;8.40;99.90;;;;;;4974637;28;21104;-78
2024/02/08 02:48:08;;;;;;;0.40;0.30;;;8.30;99.90;;;;;;4977526;28;20441;-78
2024/02/08 02:50:34;;;;;;;0.33;0.27;;;8.30;99.90;;;;;;4974780;28;20469;-78
2024/02/08 02:53:01;;;;;;;0.30;0.30;;;8.30;99.90;;;;;;4974609;28;20854;-78
2024/02/08 02:55:29;;;;;;;0.30;0.30;;;8.30;99.90;;;;;;4974747;28;20441;-78
2024/02/08 02:57:57;;;;;;;0.30;0.30;;;8.20;99.90;;;;;;4974541;28;20453;-78
2024/02/08 03:00:25;;;;;;;0.30;0.30;;;8.30;99.90;;;;;;4974607;28;20469;-78
2024/02/08 03:02:52;;;;;;;0.30;0.30;;;8.30;99.90;;;;;;4974671;28;20449;-78
2024/02/08 03:05:20;;;;;;;0.30;0.20;;;8.30;99.90;;;;;;4974496;28;20485;-78
2024/02/08 03:07:48;;;;;;;0.40;0.30;;;8.30;99.90;;;;;;4975463;28;20504;-79
2024/02/08 03:10:15;;;;;;;0.40;0.30;;;8.40;99.90;;;;;;4982100;28;20449;-78
2024/02/08 03:12:43;;;;;;;0.30;0.27;;;8.40;99.90;;;;;;4984436;28;20476;-78
2024/02/08 03:15:10;;;;;;;0.40;0.30;;;8.40;99.90;;;;;;4979449;28;20441;-78
2024/02/08 03:17:39;;;;;;;0.30;0.30;;;8.40;99.90;;;;;;4978467;28;20460;-78
2024/02/08 03:20:08;;;;;;;0.30;0.30;;;8.40;99.90;;;;;;4978763;28;20487;-78
2024/02/08 03:22:35;;;;;;;0.30;0.30;;;8.40;99.90;;;;;;4978018;28;20548;-78
2024/02/08 03:25:04;;;;;;;1.80;0.30;;;8.40;99.90;;;;;;4978418;28;20489;-78
2024/02/08 03:27:32;;;;;;;0.30;0.20;;;8.40;99.90;;;;;;4978355;28;20529;-78
2024/02/08 03:30:02;;;;;;;0.30;0.30;;;8.40;99.90;;;;;;4978238;28;20461;-78
2024/02/08 03:32:31;;;;;;;4.10;0.30;;;8.50;99.90;;;;;;4977926;28;20452;-78
2024/02/08 03:34:59;;;;;;;0.30;0.20;;;8.50;99.90;;;;;;4980891;28;20448;-78
2024/02/08 03:37:28;;;;;;;0.30;0.30;;;8.50;99.90;;;;;;4997477;28;20451;-78
2024/02/08 03:39:54;;;;;;;0.73;0.40;;;8.50;99.90;;;;;;4996846;28;20487;-78
2024/02/08 03:42:22;;;;;;;0.33;0.33;;;8.60;99.90;;;;;;4997289;28;20445;-78
2024/02/08 03:44:50;;;;;;;0.47;0.40;;;8.60;99.90;;;;;;4997153;28;20495;-78
2024/02/08 03:47:18;;;;;;;0.33;0.33;;;8.60;99.90;;;;;;4997268;28;20452;-78
2024/02/08 03:49:51;;;;;;;0.63;0.40;;;8.60;99.90;;;;;;4997324;28;20464;-78
2024/02/08 03:52:18;;;;;;;0.30;0.30;;;8.70;99.90;;;;;;4996903;28;20535;-78
2024/02/08 03:54:46;;;;;;;0.40;0.30;;;8.70;99.90;;;;;;4997046;28;20804;-78
2024/02/08 03:57:13;;;;;;;0.43;0.43;;;8.70;99.90;;;;;;4996895;28;20433;-78
2024/02/08 03:59:41;;;;;;;0.50;0.27;;;8.70;99.90;;;;;;4997019;28;20472;-78
2024/02/08 04:02:09;;;;;;;1.47;0.30;;;8.70;99.90;;;;;;4996824;28;20495;-78
2024/02/08 04:04:53;;;;;;;2.40;0.53;;;8.70;99.90;;;;;;4996708;28;20448;-78
2024/02/08 04:07:21;;;;;;;0.30;0.20;;;8.70;99.90;;;;;;4997259;28;20451;-78
2024/02/08 04:09:50;;;;;;;0.40;0.30;;;8.70;99.90;;;;;;4996552;28;20474;-78
2024/02/08 04:53:43;;;;;;;0.30;0.30;;;8.50;99.90;;;;;;4995781;28;20404;-78
2024/02/08 04:56:11;;;;;;;0.40;0.33;;;8.50;99.90;;;;;;4995927;28;20484;-78
2024/02/08 04:58:45;;;;;;;0.40;0.40;;;8.50;99.90;;;;;;4995540;28;20451;-78
2024/02/08 05:01:12;;;;;;;0.40;0.30;;;8.50;99.90;;;;;;5000128;28;20436;-78
2024/02/08 05:03:42;;;;;;;0.70;0.30;;;8.60;99.90;;;;;;4995916;28;20445;-78
2024/02/08 05:06:11;;;;;;;0.30;0.30;;;8.70;99.90;;;;;;4995734;28;20853;-78
2024/02/08 05:08:39;;;;;;;0.30;0.30;;;8.70;99.90;;;;;;4995635;28;20498;-78
2024/02/08 05:11:09;;;;;;;0.30;0.20;;;8.70;99.90;;;;;;4995811;28;20784;-78
2024/02/08 05:13:39;;;;;;;0.30;0.20;;;8.70;99.90;;;;;;4995629;28;20516;-78
2024/02/08 05:16:07;;;;;;;0.30;0.30;;;8.70;99.90;;;;;;4995621;28;20437;-78
2024/02/08 05:18:33;;;;;;;0.30;0.27;;;8.60;99.90;;;;;;4995281;28;20449;-78
2024/02/08 05:21:05;;;;;;;0.30;0.20;;;8.60;99.90;;;;;;4995460;28;20806;-78
2024/02/08 05:23:34;;;;;;;0.50;0.30;;;8.60;99.90;;;;;;4995338;28;20440;-78
2024/02/08 05:26:01;;;;;;;0.40;0.30;;;8.50;99.90;;;;;;4994734;28;21039;-78
2024/02/08 05:28:29;;;;;;;0.30;0.27;;;8.50;99.90;;;;;;4994915;28;20436;-78
2024/02/08 05:30:56;;;;;;;0.40;0.40;;;8.50;99.90;;;;;;4994895;28;20449;-78
2024/02/08 05:33:29;;;;;;;0.30;0.30;;;8.50;99.90;;;;;;4995107;28;20441;-78
2024/02/08 05:35:57;;;;;;;0.30;0.30;;;8.40;99.90;;;;;;4994928;28;20480;-78
2024/02/08 05:38:24;;;;;;;0.30;0.20;;;8.40;99.90;;;;;;4994927;28;20503;-78
2024/02/08 05:40:52;;;;;;;0.30;0.20;;;8.40;99.90;;;;;;4995158;28;20441;-78
2024/02/08 05:43:23;;;;;;;0.60;0.30;;;8.50;99.90;;;;;;4994731;28;20437;-78
2024/02/08 05:45:52;;;;;;;0.60;0.30;;;8.50;99.90;;;;;;4994922;28;20500;-78
2024/02/08 05:48:19;;;;;;;0.30;0.20;;;8.60;99.90;;;;;;4994984;28;20869;-78
2024/02/08 05:50:46;;;;;;;0.33;0.27;;;8.60;99.90;;;;;;4994588;28;20966;-78
2024/02/08 05:53:15;;;;;;;0.30;0.30;;;8.60;99.90;;;;;;4994679;28;20448;-78
2024/02/08 05:55:47;;;;;;;0.70;0.40;;;8.60;99.90;;;;;;4994902;28;20535;-78
2024/02/08 05:58:18;;;;;;;0.30;0.30;;;8.50;99.90;;;;;;4995295;28;20433;-79
2024/02/08 06:00:52;;;;;;;0.50;0.40;;;8.50;99.90;;;;;;4995081;28;20504;-79
2024/02/08 06:03:28;;;;;;;0.30;0.20;;;8.40;99.90;;;;;;4996099;28;20440;-81
2024/02/08 06:06:06;;;;;;;0.93;0.70;;;8.40;99.90;;;;;;4996359;28;20464;-81
2024/02/08 06:08:40;;;;;;;0.63;0.30;;;8.30;99.90;;;;;;4996048;28;20849;-80
2024/02/08 06:11:16;;;;;;;1.37;0.30;;;8.30;99.90;;;;;;4995147;28;20902;-80
2024/02/08 06:13:50;;;;;;;0.30;0.20;;;8.30;99.90;;;;;;4994836;28;20527;-79
2024/02/08 06:16:26;;;;;;;0.30;0.30;;;8.30;99.90;;;;;;4994962;28;20478;-79
2024/02/08 06:18:57;;;;;;;0.30;0.30;;;8.20;99.90;;;;;;4994532;28;20507;-79
2024/02/08 06:21:38;;;;;;;0.43;0.30;;;8.20;99.90;;;;;;4994749;28;20429;-79
2024/02/08 06:24:29;;;;;;;0.30;0.30;;;8.20;99.90;;;;;;4994522;28;20441;-79
2024/02/08 06:26:56;;;;;;;0.30;0.20;;;8.20;99.90;;;;;;4994347;28;20504;-79
2024/02/08 06:29:27;;;;;;;0.30;0.30;;;8.30;99.90;;;;;;4994728;28;20453;-79
2024/02/08 06:32:08;;;;;;;0.30;0.20;;;8.20;99.90;;;;;;4994804;28;20520;-79
2024/02/08 06:34:47;;;;;;;2.00;0.53;;;8.20;99.90;;;;;;4994697;28;20437;-79
2024/02/08 06:37:26;;;;;;;0.33;0.27;;;8.20;99.90;;;;;;4995124;28;20981;-79
2024/02/08 06:39:56;;;;;;;0.30;0.30;;;8.20;99.90;;;;;;4994764;28;20488;-79
2024/02/08 06:43:15;;;;;;;0.30;0.30;;;8.20;99.90;;;;;;4994198;28;20439;-79
2024/02/08 07:37:53;;;;;;;0.30;0.30;;;8.20;99.90;;;;;;4992854;28;20565;-78
2024/02/08 07:40:27;;;;;;;0.30;0.30;;;8.30;99.90;;;;;;4997123;28;20490;-78
2024/02/08 07:43:15;;;;;;;0.30;0.30;;;8.30;99.90;;;;;;4997446;28;20796;-78
2024/02/08 07:45:43;;;;;;;0.40;0.30;;;8.30;99.90;;;;;;4996770;28;20521;-78
2024/02/08 07:48:10;;;;;;;0.30;0.30;;;8.30;99.90;;;;;;4997409;28;20459;-78
2024/02/08 07:50:44;;;;;;;0.40;0.30;;;8.30;99.90;;;;;;4997606;28;20876;-78
2024/02/08 07:53:19;;;;;;;0.50;0.50;;;8.30;99.90;;;;;;4996830;28;20535;-77
2024/02/08 07:55:57;;;;;;;0.30;0.30;;;8.40;99.90;;;;;;4996855;28;20455;-77
2024/02/08 07:58:27;;;;;;;0.30;0.30;;;8.50;99.90;;;;;;4995468;28;20432;-77
2024/02/08 08:00:56;;;;;;;0.30;0.20;;;8.60;99.90;;;;;;4996712;28;20821;-78
2024/02/08 08:03:31;;;;;;;0.30;0.30;;;8.70;99.90;;;;;;4996666;28;20514;-77
2024/02/08 08:05:58;;;;;;;0.30;0.30;;;8.80;99.90;;;;;;4996278;28;20981;-77
2024/02/08 08:08:28;;;;;;;0.30;0.30;;;;;;;;;;4996707;28;20448;-77
2024/02/08 08:11:02;;;;;;;0.40;0.30;;;8.80;99.90;;;;;;4998809;28;20453;-79
2024/02/08 08:18:56;;;;;;;0.30;0.20;;;8.90;99.90;;;;;;4995866;28;20460;-79
2024/02/08 08:21:25;;;;;;;0.47;0.47;;;8.90;99.90;;;;;;4996773;28;20429;-79
2024/02/08 08:23:59;;;;;;;0.53;0.43;;;8.90;99.90;;;;;;4996478;28;20448;-79
2024/02/08 08:26:37;;;;;;;0.60;0.50;;;8.90;99.90;;;;;;4996536;28;20468;-79
2024/02/08 08:29:13;;;;;;;0.30;0.20;;;8.90;99.90;;;;;;4996951;28;20476;-79
2024/02/08 08:31:51;;;;;;;3.37;0.60;;;8.90;99.90;;;;;;4997162;28;20425;-83
2024/02/08 08:37:02;;;;;;;0.43;0.40;;;8.90;99.90;;;;;;4963696;28;20470;-78
2024/02/08 08:42:17;;;;;;;0.40;0.40;;;9.00;99.90;;;;;;4996587;28;20426;-79
2024/02/08 08:44:48;;;;;;;0.33;0.30;;;9.00;99.90;;;;;;4996332;28;20425;-79
2024/02/08 08:47:16;;;;;;;0.30;0.30;;;9.10;99.90;;;;;;4996124;28;20468;-78
2024/02/08 08:49:43;;;;;;;0.30;0.30;;;9.20;99.90;;;;;;4996161;28;20472;-78
2024/02/08 08:52:10;;;;;;;0.43;0.40;;;9.30;99.90;;;;;;4995807;28;20451;-78
2024/02/08 08:54:42;;;;;;;0.30;0.30;;;9.30;99.90;;;;;;4996459;28;20445;-78
2024/02/08 08:57:12;;;;;;;0.30;0.30;;;9.30;99.90;;;;;;4996115;28;20859;-78
2024/02/08 08:59:42;;;;;;;0.30;0.30;;;9.30;99.90;;;;;;4995938;28;20826;-78
2024/02/08 09:02:09;;;;;;;0.40;0.40;;;9.20;99.90;;;;;;4996443;28;20429;-78
2024/02/08 09:04:36;;;;;;;0.30;0.30;;;9.20;99.90;;;;;;4995928;28;20452;-78
2024/02/08 09:07:10;;;;;;;0.67;0.30;;;9.30;99.90;;;;;;4995870;28;20484;-78
2024/02/08 09:10:00;;;;;;;0.30;0.30;;;9.30;99.90;;;;;;4996318;28;20484;-78
2024/02/08 09:12:36;;;;;;;0.40;0.30;;;9.40;99.90;;;;;;4996701;28;20448;-78
2024/02/08 09:17:51;;;;;;;0.40;0.40;;;9.40;99.90;;;;;;4995918;28;20519;-78
2024/02/08 09:20:23;;;;;;;0.50;0.40;;;9.30;99.90;;;;;;4996262;28;20468;-78
2024/02/08 09:22:52;;;;;;;0.30;0.30;;;9.30;99.90;;;;;;4995582;28;20437;-78
2024/02/08 09:25:19;;;;;;;0.50;0.30;;;9.20;99.90;;;;;;4996006;28;20448;-78
2024/02/08 09:27:53;;;;;;;0.40;0.40;;;9.30;99.90;;;;;;5003846;28;20490;-77
2024/02/08 09:30:37;;;;;;;0.33;0.30;;;9.30;99.90;;;;;;4995290;28;20829;-78
2024/02/08 09:33:13;;;;;;;0.30;0.30;;;9.50;99.90;;;;;;4994837;28;20437;-78
2024/02/08 09:35:41;;;;;;;0.30;0.30;;;9.60;99.90;;;;;;4995073;28;20436;-78
2024/02/08 09:38:09;;;;;;;0.30;0.20;;;9.50;99.90;;;;;;4995045;28;20857;-78
2024/02/08 09:40:45;;;;;;;0.40;0.30;;;9.40;99.90;;;;;;4994601;28;20488;-78
2024/02/08 09:43:17;;;;;;;1.03;0.33;;;9.50;99.90;;;;;;4994748;28;20425;-78
2024/02/08 09:45:46;;;;;;;0.30;0.30;;;9.60;99.90;;;;;;4994874;28;20429;-77
2024/02/08 09:48:25;;;;;;;0.40;0.30;;;9.70;99.90;;;;;;4994864;28;20436;-78
2024/02/08 09:50:59;;;;;;;0.80;0.63;;;9.80;99.90;;;;;;4995322;28;20457;-78
2024/02/08 09:53:28;;;;;;;0.40;0.40;;;9.90;99.90;;;;;;4994897;28;20433;-78
2024/02/08 09:55:57;;;;;;;2.10;0.60;;;10.00;99.90;;;;;;4995671;28;20444;-78
2024/02/08 09:58:34;;;;;;;0.40;0.40;;;10.20;99.90;;;;;;4994721;28;20436;-78
2024/02/08 10:01:21;;;;;;;0.87;0.30;;;10.20;99.90;;;;;;4995042;28;20455;-78
2024/02/08 10:03:49;;;;;;;0.30;0.20;;;10.40;99.90;;;;;;4994881;28;20788;-78
2024/02/08 10:06:24;;;;;;;0.30;0.20;;;10.30;99.90;;;;;;4994641;28;20484;-78
2024/02/08 10:08:54;;;;;;;0.40;0.30;;;10.30;99.90;;;;;;4994326;28;21000;-78
2024/02/08 10:11:27;;;;;;;0.30;0.30;;;10.30;99.90;;;;;;4995284;28;20428;-78
2024/02/08 10:13:56;;;;;;;0.30;0.30;;;10.40;99.90;;;;;;4994666;28;20443;-78
2024/02/08 10:19:24;;;;;;;0.30;0.30;;;10.80;99.90;;;;;;4994845;28;20468;-78
2024/02/08 10:22:01;;;;;;;0.83;0.40;;;10.90;99.90;;;;;;4994509;28;20428;-78
2024/02/08 10:26:17;;;;;;;0.57;0.40;;;11.00;99.90;;;;;;4994356;28;20436;-78
2024/02/08 10:27:19;;;;;;;0.30;0.30;;;10.90;99.90;;;;;;4994295;28;21059;-78
2024/02/08 10:29:46;;;;;;;0.50;0.30;;;10.90;99.90;;;;;;4995165;28;20515;-78
2024/02/08 10:32:18;;;;;;;0.40;0.30;;;10.70;99.90;;;;;;4994389;28;20436;-78
2024/02/08 10:34:45;;;;;;;0.30;0.30;;;10.60;99.90;;;;;;4995287;28;20469;-78
2024/02/08 10:37:46;;;;;;;0.40;0.30;;;10.40;99.90;;;;;;4994142;28;20445;-78
2024/02/08 10:40:28;;;;;;;0.30;0.20;;;10.30;99.90;;;;;;4994024;28;20504;-78
2024/02/08 10:42:50;;;;;;;0.30;0.30;;;10.30;99.90;;;;;;4994121;28;20815;-78
2024/02/08 10:45:18;;;;;;;0.30;0.30;;;10.30;99.90;;;;;;4994528;28;20498;-78
2024/02/08 10:47:48;;;;;;;0.40;0.30;;;10.30;99.90;;;;;;4994816;28;20484;-78
2024/02/08 10:50:20;;;;;;;0.47;0.30;;;10.30;99.90;;;;;;4994902;28;20464;-78
2024/02/08 10:52:48;;;;;;;0.30;0.30;;;10.40;99.90;;;;;;4994902;28;20911;-78
2024/02/08 10:55:18;;;;;;;0.30;0.30;;;10.50;99.90;;;;;;4994449;28;20455;-78
2024/02/08 10:58:20;;;;;;;0.43;0.40;;;10.70;99.90;;;;;;4994568;28;20475;-78
2024/02/08 11:01:06;;;;;;;0.30;0.30;;;10.80;99.90;;;;;;4994556;28;20495;-78
2024/02/08 11:03:43;;;;;;;0.40;0.30;;;11.00;99.90;;;;;;4994792;28;20433;-78
2024/02/08 11:06:26;;;;;;;0.30;0.30;;;11.60;99.90;;;;;;4994352;28;20918;-78
2024/02/08 11:09:09;;;;;;;0.80;0.30;;;11.80;99.90;;;;;;4994407;28;20504;-78
2024/02/08 11:11:38;;;;;;;0.63;0.40;;;12.00;99.90;;;;;;4994368;28;20847;-78
2024/02/08 11:14:08;;;;;;;2.30;0.40;;;11.90;99.90;;;;;;4994830;28;20449;-78
2024/02/08 11:16:37;;;;;;;0.30;0.30;;;11.90;99.90;;;;;;4994607;28;20910;-78
2024/02/08 11:19:05;;;;;;;0.30;0.30;;;11.80;99.90;;;;;;4994390;28;20486;-78
2024/02/08 11:21:43;;;;;;;0.30;0.30;;;11.80;99.90;;;;;;4995592;28;20459;-78
2024/02/08 11:24:10;;;;;;;0.30;0.30;;;11.60;99.90;;;;;;4995732;28;20431;-78
2024/02/08 11:26:39;;;;;;;0.40;0.30;;;11.50;99.90;;;;;;4995863;28;20499;-78
2024/02/08 11:29:18;;;;;;;0.40;0.40;;;11.50;99.90;;;;;;4995564;28;21040;-78
2024/02/08 11:31:46;;;;;;;0.30;0.20;;;11.50;99.90;;;;;;4997340;28;20909;-78
2024/02/08 11:34:15;;;;;;;0.40;0.30;;;11.50;99.90;;;;;;4999511;28;20480;-78
2024/02/08 11:36:43;;;;;;;0.30;0.30;;;11.60;99.90;;;;;;4999486;28;20476;-78
2024/02/08 11:39:26;;;;;;;0.30;0.20;;;11.70;99.90;;;;;;4999191;28;20989;-78
2024/02/08 11:41:56;;;;;;;0.40;0.30;;;11.70;99.90;;;;;;5001356;28;20479;-77
2024/02/08 11:44:25;;;;;;;0.40;0.40;;;11.70;99.90;;;;;;5010919;28;20471;-78
2024/02/08 11:46:58;;;;;;;2.10;0.37;;;11.60;99.90;;;;;;5003821;28;20487;-78
2024/02/08 11:49:35;;;;;;;0.37;0.33;;;11.60;99.90;;;;;;4998947;28;21008;-78
2024/02/08 11:52:06;;;;;;;0.30;0.30;;;11.60;99.90;;;;;;4999535;28;20948;-78
2024/02/08 11:54:37;;;;;;;0.60;0.30;;;11.60;99.90;;;;;;4997878;28;20436;-78
2024/02/08 11:57:06;;;;;;;0.30;0.20;;;11.60;99.90;;;;;;4998651;28;20440;-78
2024/02/08 11:59:36;;;;;;;0.40;0.40;;;11.60;99.90;;;;;;4997435;28;20867;-78
2024/02/08 12:02:07;;;;;;;0.50;0.30;;;11.50;99.90;;;;;;4997285;28;20483;-78
2024/02/08 12:04:36;;;;;;;0.30;0.30;;;11.60;99.90;;;;;;4997221;28;20434;-79
2024/02/08 12:07:04;;;;;;;0.30;0.20;;;11.70;99.90;;;;;;4997015;28;20476;-78
2024/02/08 12:09:31;;;;;;;0.40;0.30;;;11.80;99.90;;;;;;4996828;28;20478;-79
2024/02/08 12:11:59;;;;;;;0.30;0.30;;;11.90;99.90;;;;;;4996842;28;20452;-78
2024/02/08 12:14:26;;;;;;;0.30;0.30;;;11.90;99.90;;;;;;4996953;28;20447;-78
2024/02/08 12:16:57;;;;;;;0.40;0.30;;;12.10;99.90;;;;;;4996877;28;20436;-78
2024/02/08 12:19:25;;;;;;;0.40;0.40;;;12.10;99.90;;;;;;4997188;28;20479;-78
2024/02/08 12:21:58;;;;;;;0.77;0.30;;;12.10;99.90;;;;;;4997250;28;20448;-78
2024/02/08 12:24:24;;;;;;;0.30;0.30;;;12.20;99.90;;;;;;4996774;28;20481;-78
2024/02/08 12:26:54;;;;;;;0.60;0.60;;;12.20;99.90;;;;;;4996904;28;21007;-78
2024/02/08 12:29:24;;;;;;;0.40;0.33;;;12.30;99.90;;;;;;4997139;28;20523;-78
2024/02/08 12:31:54;;;;;;;2.10;0.43;;;12.30;99.90;;;;;;4997278;28;20499;-78
2024/02/08 12:34:31;;;;;;;0.30;0.30;;;12.30;99.90;;;;;;4996525;28;20475;-78
2024/02/08 12:37:05;;;;;;;1.27;0.40;;;12.40;99.90;;;;;;4996218;28;20898;-78
2024/02/08 12:39:34;;;;;;;0.77;0.33;;;12.60;99.90;;;;;;4996265;28;20483;-78
2024/02/08 12:42:04;;;;;;;0.30;0.30;;;12.70;99.90;;;;;;4996210;28;20968;-78
2024/02/08 12:44:34;;;;;;;0.40;0.40;;;12.60;99.90;;;;;;4995455;28;20440;-78
2024/02/08 12:47:05;;;;;;;0.40;0.30;;;12.60;99.90;;;;;;4996572;28;20511;-78
2024/02/08 12:49:33;;;;;;;0.40;0.40;;;12.50;99.90;;;;;;4996285;28;20468;-78
2024/02/08 12:52:03;;;;;;;2.97;0.73;;;12.60;99.90;;;;;;4996714;28;20449;-78
2024/02/08 12:54:32;;;;;;;0.80;0.47;;;12.70;99.90;;;;;;4996348;28;20429;-79
2024/02/08 12:57:07;;;;;;;0.80;0.50;;;12.80;99.90;;;;;;4996564;28;20449;-78
2024/02/08 12:59:35;;;;;;;3.73;0.90;;;12.80;99.90;;;;;;4996621;28;20452;-78
2024/02/08 13:02:08;;;;;;;6.77;0.53;;;13.00;99.90;;;;;;4996802;28;20452;-78
2024/02/08 13:04:36;;;;;;;3.33;0.80;;;13.10;99.90;;;;;;4996887;28;20440;-78
2024/02/08 13:07:05;;;;;;;2.00;0.60;;;13.00;99.90;;;;;;4996297;28;20985;-78
2024/02/08 13:09:37;;;;;;;2.30;0.80;;;13.00;99.90;;;;;;4996439;28;20885;-78
2024/02/08 13:12:15;;;;;;;0.40;0.33;;;12.90;99.90;;;;;;4996843;28;20437;-78
2024/02/08 13:14:48;;;;;;;1.47;0.50;;;13.00;99.90;;;;;;4996178;28;20898;-78
2024/02/08 13:17:18;;;;;;;1.97;0.73;;;12.90;99.90;;;;;;4996702;28;20846;-78
2024/02/08 13:19:47;;;;;;;0.40;0.40;;;12.80;99.90;;;;;;4995925;28;20496;-78
2024/02/08 13:22:20;;;;;;;3.23;0.80;;;12.80;99.90;;;;;;4995395;28;20984;-78
2024/02/08 13:24:51;;;;;;;4.10;0.60;;;12.70;99.90;;;;;;4996021;28;20471;-78
2024/02/08 13:27:18;;;;;;;3.63;0.50;;;12.70;99.90;;;;;;4995780;28;20473;-78
2024/02/08 13:29:45;;;;;;;0.50;0.40;;;12.70;99.90;;;;;;4995541;28;20472;-78
2024/02/08 13:32:12;;;;;;;1.33;0.60;;;12.60;99.90;;;;;;4995680;28;20448;-78
2024/02/08 13:34:40;;;;;;;1.00;0.60;;;12.60;99.90;;;;;;4995145;28;20452;-78
2024/02/08 13:37:15;;;;;;;1.90;0.40;;;12.60;99.90;;;;;;4995706;28;21005;-78
2024/02/08 13:39:43;;;;;;;0.50;0.50;;;12.60;99.90;;;;;;4995458;28;20495;-78
2024/02/08 13:42:10;;;;;;;0.43;0.43;;;12.70;99.90;;;;;;4995762;28;20458;-78
2024/02/08 13:44:37;;;;;;;4.43;0.60;;;12.70;99.90;;;;;;4995594;28;20448;-78
2024/02/08 13:47:04;;;;;;;0.83;0.40;;;12.70;99.90;;;;;;4995291;28;20448;-78
2024/02/08 13:49:32;;;;;;;2.10;0.53;;;12.60;99.90;;;;;;4995214;28;20499;-78
2024/02/08 13:51:58;;;;;;;0.57;0.40;;;12.50;99.90;;;;;;4995863;28;20539;-78
2024/02/08 13:54:27;;;;;;;4.47;0.70;;;12.50;99.90;;;;;;4995284;28;20437;-78
2024/02/08 13:56:56;;;;;;;0.30;0.30;;;12.50;99.90;;;;;;5001018;28;20523;-78
2024/02/08 13:59:23;;;;;;;4.63;1.07;;;12.60;99.90;;;;;;4995429;28;20504;-77
2024/02/08 14:01:52;;;;;;;1.37;0.87;;;12.50;99.90;;;;;;4994609;28;20448;-78
2024/02/08 14:04:22;;;;;;;0.40;0.40;;;12.40;99.90;;;;;;4994696;28;20441;-78
2024/02/08 14:06:55;;;;;;;2.83;0.43;;;12.40;99.90;;;;;;4994670;28;21002;-78
2024/02/08 14:09:24;;;;;;;0.80;0.70;;;12.50;99.90;;;;;;4994740;28;20519;-78
2024/02/08 14:11:55;;;;;;;5.30;0.83;;;12.50;99.90;;;;;;4994990;28;20440;-78
2024/02/08 14:14:29;;;;;;;1.33;0.50;;;12.50;99.90;;;;;;4995006;28;20491;-78
2024/02/08 14:16:58;;;;;;;5.60;0.77;;;12.60;99.90;;;;;;4994598;28;20443;-78
2024/02/08 14:19:33;;;;;;;4.40;0.57;;;12.50;99.90;;;;;;4994598;28;20496;-78
2024/02/08 14:22:06;;;;;;;0.70;0.63;;;12.50;99.90;;;;;;4994420;28;20428;-78
2024/02/08 14:24:36;;;;;;;7.80;0.80;;;12.50;99.90;;;;;;4994681;28;20441;-78
2024/02/08 14:27:05;;;;;;;0.67;0.50;;;12.30;99.90;;;;;;4994255;28;20428;-78
2024/02/08 14:29:36;;;;;;;2.50;0.70;;;12.40;99.90;;;;;;4994426;28;21038;-78
2024/02/08 14:32:04;;;;;;;1.83;0.60;;;12.30;99.90;;;;;;4994302;28;20471;-78
2024/02/08 14:34:35;;;;;;;4.93;0.67;;;12.40;99.90;;;;;;4994453;28;20502;-78
2024/02/08 14:37:03;;;;;;;9.23;1.37;;;12.40;99.90;;;;;;4994583;28;20783;-78
2024/02/08 14:39:32;;;;;;;0.60;0.60;;;12.30;99.90;;;;;;4994093;28;20486;-78
2024/02/08 14:42:00;;;;;;;5.50;0.63;;;12.30;99.90;;;;;;4994439;28;20455;-78
2024/02/08 14:44:32;;;;;;;4.40;0.70;;;12.30;99.90;;;;;;4994481;28;20455;-78
2024/02/08 14:47:06;;;;;;;4.10;0.80;;;12.30;99.90;;;;;;4994628;28;20429;-78
2024/02/08 14:49:36;;;;;;;1.60;0.67;;;12.20;99.90;;;;;;4994230;28;20993;-78
2024/02/08 14:52:14;;;;;;;0.50;0.43;;;12.20;99.90;;;;;;4994270;28;20910;-78
2024/02/08 14:54:42;;;;;;;2.20;0.50;;;12.20;99.90;;;;;;4994537;28;20440;-78
2024/02/08 14:57:09;;;;;;;3.70;1.27;;;12.10;99.90;;;;;;4994214;28;20456;-78
2024/02/08 14:59:45;;;;;;;1.47;0.60;;;12.00;99.90;;;;;;4994325;28;20559;-78